sensor_id;sensor_type;location;lat;lon;timestamp;temperature;humidity
38090;DHT22;23904;52.322;10.232;2024-03-07T00:02:13;4.40;99.90
38090;DHT22;23904;52.322;10.232;2024-03-07T00:04:39;4.30;99.90
38090;DHT22;23904;52.322;10.232;2024-03-07T00:07:05;4.40;99.90
38090;DHT22;23904;52.322;10.232;2024-03-07T00:09:33;4.40;99.90
38090;DHT22;23904;52.322;10.232;2024-03-07T00:12:00;4.40;99.90
38090;DHT22;23904;52.322;10.232;2024-03-07T00:14:26;4.40;99.90
38090;DHT22;23904;52.322;10.232;2024-03-07T00:16:55;4.30;99.90
38090;DHT22;23904;52.322;10.232;2024-03-07T00:19:22;4.30;99.90
38090;DHT22;23904;52.322;10.232;2024-03-07T00:21:52;4.20;99.90
38090;DHT22;23904;52.322;10.232;2024-03-07T00:24:19;4.10;99.90
38090;DHT22;23904;52.322;10.232;2024-03-07T00:26:45;4.10;99.90
38090;DHT22;23904;52.322;10.232;2024-03-07T00:29:11;4.10;99.90
38090;DHT22;23904;52.322;10.232;2024-03-07T00:31:36;4.10;99.90
38090;DHT22;23904;52.322;10.232;2024-03-07T00:34:02;4.10;99.90
38090;DHT22;23904;52.322;10.232;2024-03-07T00:36:27;4.00;99.90
38090;DHT22;23904;52.322;10.232;2024-03-07T00:38:53;4.00;99.90
38090;DHT22;23904;52.322;10.232;2024-03-07T00:41:19;4.00;99.90
38090;DHT22;23904;52.322;10.232;2024-03-07T00:43:45;3.90;99.90
38090;DHT22;23904;52.322;10.232;2024-03-07T00:46:10;4.00;99.90
38090;DHT22;23904;52.322;10.232;2024-03-07T00:48:36;4.00;99.90
38090;DHT22;23904;52.322;10.232;2024-03-07T00:51:03;3.90;99.90
38090;DHT22;23904;52.322;10.232;2024-03-07T00:53:30;3.90;99.90
38090;DHT22;23904;52.322;10.232;2024-03-07T00:55:56;3.90;99.90
38090;DHT22;23904;52.322;10.232;2024-03-07T00:58:22;3.90;99.90
38090;DHT22;23904;52.322;10.232;2024-03-07T01:00:47;3.90;99.90
38090;DHT22;23904;52.322;10.232;2024-03-07T01:03:13;3.80;99.90
38090;DHT22;23904;52.322;10.232;2024-03-07T01:05:40;3.90;99.90
38090;DHT22;23904;52.322;10.232;2024-03-07T01:08:05;3.80;99.90
38090;DHT22;23904;52.322;10.232;2024-03-07T01:10:31;3.80;99.90
38090;DHT22;23904;52.322;10.232;2024-03-07T01:12:57;3.80;99.90
38090;DHT22;23904;52.322;10.232;2024-03-07T01:15:27;3.80;99.90
38090;DHT22;23904;52.322;10.232;2024-03-07T01:17:53;3.70;99.90
38090;DHT22;23904;52.322;10.232;2024-03-07T01:20:19;3.70;99.90
38090;DHT22;23904;52.322;10.232;2024-03-07T01:22:44;3.80;99.90
38090;DHT22;23904;52.322;10.232;2024-03-07T01:25:10;3.70;99.90
38090;DHT22;23904;52.322;10.232;2024-03-07T01:27:37;3.80;99.90
38090;DHT22;23904;52.322;10.232;2024-03-07T01:30:04;3.80;99.90
38090;DHT22;23904;52.322;10.232;2024-03-07T01:32:33;3.80;99.90
38090;DHT22;23904;52.322;10.232;2024-03-07T01:34:59;3.80;99.90
38090;DHT22;23904;52.322;10.232;2024-03-07T01:37:24;3.80;99.90
38090;DHT22;23904;52.322;10.232;2024-03-07T01:39:50;3.90;99.90
38090;DHT22;23904;52.322;10.232;2024-03-07T01:42:15;3.90;99.90
38090;DHT22;23904;52.322;10.232;2024-03-07T01:44:41;3.90;99.90
38090;DHT22;23904;52.322;10.232;2024-03-07T01:47:09;3.90;99.90
38090;DHT22;23904;52.322;10.232;2024-03-07T01:49:35;3.90;99.90
38090;DHT22;23904;52.322;10.232;2024-03-07T01:52:01;3.90;99.90
38090;DHT22;23904;52.322;10.232;2024-03-07T01:54:29;3.90;99.90
38090;DHT22;23904;52.322;10.232;2024-03-07T01:56:55;3.90;99.90
38090;DHT22;23904;52.322;10.232;2024-03-07T01:59:21;3.90;99.90
38090;DHT22;23904;52.322;10.232;2024-03-07T02:01:47;3.90;99.90
38090;DHT22;23904;52.322;10.232;2024-03-07T02:04:13;3.90;99.90
38090;DHT22;23904;52.322;10.232;2024-03-07T02:06:39;3.90;99.90
38090;DHT22;23904;52.322;10.232;2024-03-07T02:09:05;3.90;99.90
38090;DHT22;23904;52.322;10.232;2024-03-07T02:11:31;3.90;99.90
38090;DHT22;23904;52.322;10.232;2024-03-07T02:13:57;4.00;99.90
38090;DHT22;23904;52.322;10.232;2024-03-07T02:16:22;4.00;99.90
38090;DHT22;23904;52.322;10.232;2024-03-07T02:18:49;4.00;99.90
38090;DHT22;23904;52.322;10.232;2024-03-07T02:21:15;4.10;99.90
38090;DHT22;23904;52.322;10.232;2024-03-07T02:23:41;4.10;99.90
38090;DHT22;23904;52.322;10.232;2024-03-07T02:26:07;4.10;99.90
38090;DHT22;23904;52.322;10.232;2024-03-07T02:28:34;4.10;99.90
38090;DHT22;23904;52.322;10.232;2024-03-07T02:31:00;4.10;99.90
38090;DHT22;23904;52.322;10.232;2024-03-07T02:33:26;4.20;99.90
38090;DHT22;23904;52.322;10.232;2024-03-07T02:35:53;4.10;99.90
38090;DHT22;23904;52.322;10.232;2024-03-07T02:38:18;4.20;99.90
38090;DHT22;23904;52.322;10.232;2024-03-07T02:40:45;4.20;99.90
38090;DHT22;23904;52.322;10.232;2024-03-07T02:43:12;4.20;99.90
38090;DHT22;23904;52.322;10.232;2024-03-07T02:45:37;4.20;99.90
38090;DHT22;23904;52.322;10.232;2024-03-07T02:48:04;4.30;99.90
38090;DHT22;23904;52.322;10.232;2024-03-07T02:50:35;4.30;99.90
38090;DHT22;23904;52.322;10.232;2024-03-07T02:53:03;4.30;99.90
38090;DHT22;23904;52.322;10.232;2024-03-07T02:55:29;4.30;99.90
38090;DHT22;23904;52.322;10.232;2024-03-07T02:57:56;4.30;99.90
38090;DHT22;23904;52.322;10.232;2024-03-07T03:00:25;4.30;99.90
38090;DHT22;23904;52.322;10.232;2024-03-07T03:02:55;4.30;99.90
38090;DHT22;23904;52.322;10.232;2024-03-07T03:05:22;4.40;99.90
38090;DHT22;23904;52.322;10.232;2024-03-07T03:07:48;4.40;99.90
38090;DHT22;23904;52.322;10.232;2024-03-07T03:10:22;4.40;99.90
38090;DHT22;23904;52.322;10.232;2024-03-07T03:12:57;4.30;99.90
38090;DHT22;23904;52.322;10.232;2024-03-07T03:15:24;4.30;99.90
38090;DHT22;23904;52.322;10.232;2024-03-07T03:17:50;4.30;99.90
38090;DHT22;23904;52.322;10.232;2024-03-07T03:20:17;4.30;99.90
38090;DHT22;23904;52.322;10.232;2024-03-07T03:22:52;4.40;99.90
38090;DHT22;23904;52.322;10.232;2024-03-07T03:25:22;4.30;99.90
38090;DHT22;23904;52.322;10.232;2024-03-07T03:27:48;4.40;99.90
38090;DHT22;23904;52.322;10.232;2024-03-07T03:30:14;4.40;99.90
38090;DHT22;23904;52.322;10.232;2024-03-07T03:32:41;4.40;99.90
38090;DHT22;23904;52.322;10.232;2024-03-07T03:35:07;4.40;99.90
38090;DHT22;23904;52.322;10.232;2024-03-07T03:37:39;4.40;99.90
38090;DHT22;23904;52.322;10.232;2024-03-07T03:40:06;4.50;99.90
38090;DHT22;23904;52.322;10.232;2024-03-07T03:42:37;4.50;99.90
38090;DHT22;23904;52.322;10.232;2024-03-07T03:45:04;4.50;99.90
38090;DHT22;23904;52.322;10.232;2024-03-07T03:47:38;4.60;99.90
38090;DHT22;23904;52.322;10.232;2024-03-07T03:50:07;4.50;99.90
38090;DHT22;23904;52.322;10.232;2024-03-07T03:52:37;4.50;99.90
38090;DHT22;23904;52.322;10.232;2024-03-07T03:55:06;4.50;99.90
38090;DHT22;23904;52.322;10.232;2024-03-07T03:57:33;4.50;99.90
38090;DHT22;23904;52.322;10.232;2024-03-07T04:00:00;4.50;99.90
38090;DHT22;23904;52.322;10.232;2024-03-07T04:02:25;4.50;99.90
38090;DHT22;23904;52.322;10.232;2024-03-07T04:04:52;4.50;99.90
38090;DHT22;23904;52.322;10.232;2024-03-07T04:07:18;4.50;99.90
38090;DHT22;23904;52.322;10.232;2024-03-07T04:09:45;4.60;99.90
38090;DHT22;23904;52.322;10.232;2024-03-07T04:12:11;4.60;99.90
38090;DHT22;23904;52.322;10.232;2024-03-07T04:14:39;4.60;99.90
38090;DHT22;23904;52.322;10.232;2024-03-07T04:17:06;4.50;99.90
38090;DHT22;23904;52.322;10.232;2024-03-07T04:19:41;4.60;99.90
38090;DHT22;23904;52.322;10.232;2024-03-07T04:22:07;4.60;99.90
38090;DHT22;23904;52.322;10.232;2024-03-07T04:24:34;4.70;99.90
38090;DHT22;23904;52.322;10.232;2024-03-07T04:27:01;4.70;99.90
38090;DHT22;23904;52.322;10.232;2024-03-07T04:29:34;4.70;99.90
38090;DHT22;23904;52.322;10.232;2024-03-07T04:32:01;4.70;99.90
38090;DHT22;23904;52.322;10.232;2024-03-07T04:34:27;4.70;99.90
38090;DHT22;23904;52.322;10.232;2024-03-07T04:36:59;4.70;99.90
38090;DHT22;23904;52.322;10.232;2024-03-07T04:39:28;4.70;99.90
38090;DHT22;23904;52.322;10.232;2024-03-07T04:42:01;4.80;99.90
38090;DHT22;23904;52.322;10.232;2024-03-07T04:44:28;4.80;99.90
38090;DHT22;23904;52.322;10.232;2024-03-07T04:46:54;4.80;99.90
38090;DHT22;23904;52.322;10.232;2024-03-07T04:49:24;4.80;99.90
38090;DHT22;23904;52.322;10.232;2024-03-07T04:51:54;4.80;99.90
38090;DHT22;23904;52.322;10.232;2024-03-07T04:54:22;4.70;99.90
38090;DHT22;23904;52.322;10.232;2024-03-07T04:56:49;4.80;99.90
38090;DHT22;23904;52.322;10.232;2024-03-07T04:59:17;4.80;99.90
38090;DHT22;23904;52.322;10.232;2024-03-07T05:01:44;4.80;99.90
38090;DHT22;23904;52.322;10.232;2024-03-07T05:04:12;4.90;99.90
38090;DHT22;23904;52.322;10.232;2024-03-07T05:06:38;4.90;99.90
38090;DHT22;23904;52.322;10.232;2024-03-07T05:09:05;4.90;99.90
38090;DHT22;23904;52.322;10.232;2024-03-07T05:11:33;4.80;99.90
38090;DHT22;23904;52.322;10.232;2024-03-07T05:13:59;4.80;99.90
38090;DHT22;23904;52.322;10.232;2024-03-07T05:16:26;4.80;99.90
38090;DHT22;23904;52.322;10.232;2024-03-07T05:18:52;4.80;99.90
38090;DHT22;23904;52.322;10.232;2024-03-07T05:21:19;4.80;99.90
38090;DHT22;23904;52.322;10.232;2024-03-07T05:24:04;4.80;99.90
38090;DHT22;23904;52.322;10.232;2024-03-07T05:26:31;4.90;99.90
38090;DHT22;23904;52.322;10.232;2024-03-07T05:29:01;4.90;99.90
38090;DHT22;23904;52.322;10.232;2024-03-07T05:31:31;4.90;99.90
38090;DHT22;23904;52.322;10.232;2024-03-07T05:34:02;4.90;99.90
38090;DHT22;23904;52.322;10.232;2024-03-07T05:36:30;4.90;99.90
38090;DHT22;23904;52.322;10.232;2024-03-07T05:38:57;5.00;99.90
38090;DHT22;23904;52.322;10.232;2024-03-07T05:41:23;5.00;99.90
38090;DHT22;23904;52.322;10.232;2024-03-07T05:43:48;5.00;99.90
38090;DHT22;23904;52.322;10.232;2024-03-07T05:46:16;5.00;99.90
38090;DHT22;23904;52.322;10.232;2024-03-07T05:48:42;5.00;99.90
38090;DHT22;23904;52.322;10.232;2024-03-07T05:51:07;5.10;99.90
38090;DHT22;23904;52.322;10.232;2024-03-07T05:53:35;5.00;99.90
38090;DHT22;23904;52.322;10.232;2024-03-07T05:56:00;5.00;99.90
38090;DHT22;23904;52.322;10.232;2024-03-07T05:58:26;5.00;99.90
38090;DHT22;23904;52.322;10.232;2024-03-07T06:00:52;5.10;99.90
38090;DHT22;23904;52.322;10.232;2024-03-07T06:03:18;5.00;99.90
38090;DHT22;23904;52.322;10.232;2024-03-07T06:05:47;5.10;99.90
38090;DHT22;23904;52.322;10.232;2024-03-07T06:08:18;5.10;99.90
38090;DHT22;23904;52.322;10.232;2024-03-07T06:10:47;5.10;99.90
38090;DHT22;23904;52.322;10.232;2024-03-07T06:13:14;5.10;99.90
38090;DHT22;23904;52.322;10.232;2024-03-07T06:15:43;5.10;99.90
38090;DHT22;23904;52.322;10.232;2024-03-07T06:18:10;5.20;99.90
38090;DHT22;23904;52.322;10.232;2024-03-07T06:20:42;5.10;99.90
38090;DHT22;23904;52.322;10.232;2024-03-07T06:23:09;5.20;99.90
38090;DHT22;23904;52.322;10.232;2024-03-07T06:25:37;5.20;99.90
38090;DHT22;23904;52.322;10.232;2024-03-07T06:28:11;5.30;99.90
38090;DHT22;23904;52.322;10.232;2024-03-07T06:30:42;5.30;99.90
38090;DHT22;23904;52.322;10.232;2024-03-07T06:33:09;5.30;99.90
38090;DHT22;23904;52.322;10.232;2024-03-07T06:35:38;5.30;99.90
38090;DHT22;23904;52.322;10.232;2024-03-07T06:38:10;5.30;99.90
38090;DHT22;23904;52.322;10.232;2024-03-07T06:40:37;5.30;99.90
38090;DHT22;23904;52.322;10.232;2024-03-07T06:43:03;5.30;99.90
38090;DHT22;23904;52.322;10.232;2024-03-07T06:45:30;5.30;99.90
38090;DHT22;23904;52.322;10.232;2024-03-07T06:47:56;5.30;99.90
38090;DHT22;23904;52.322;10.232;2024-03-07T06:50:22;5.40;99.90
38090;DHT22;23904;52.322;10.232;2024-03-07T06:52:48;5.40;99.90
38090;DHT22;23904;52.322;10.232;2024-03-07T06:55:18;5.40;99.90
38090;DHT22;23904;52.322;10.232;2024-03-07T06:57:44;5.40;99.90
38090;DHT22;23904;52.322;10.232;2024-03-07T07:00:11;5.50;99.90
38090;DHT22;23904;52.322;10.232;2024-03-07T07:02:38;5.50;99.90
38090;DHT22;23904;52.322;10.232;2024-03-07T07:05:08;5.50;99.90
38090;DHT22;23904;52.322;10.232;2024-03-07T07:07:39;5.60;99.90
38090;DHT22;23904;52.322;10.232;2024-03-07T07:10:09;5.60;99.90
38090;DHT22;23904;52.322;10.232;2024-03-07T07:12:47;5.60;99.90
38090;DHT22;23904;52.322;10.232;2024-03-07T07:15:14;5.60;99.90
38090;DHT22;23904;52.322;10.232;2024-03-07T07:17:41;5.60;99.90
38090;DHT22;23904;52.322;10.232;2024-03-07T07:20:10;5.60;99.90
38090;DHT22;23904;52.322;10.232;2024-03-07T07:22:39;5.70;99.90
38090;DHT22;23904;52.322;10.232;2024-03-07T07:25:05;5.60;99.90
38090;DHT22;23904;52.322;10.232;2024-03-07T07:27:39;5.70;99.90
38090;DHT22;23904;52.322;10.232;2024-03-07T07:30:06;5.80;99.90
38090;DHT22;23904;52.322;10.232;2024-03-07T07:32:32;5.80;99.90
38090;DHT22;23904;52.322;10.232;2024-03-07T07:34:58;5.80;99.90
38090;DHT22;23904;52.322;10.232;2024-03-07T07:37:23;5.80;99.90
38090;DHT22;23904;52.322;10.232;2024-03-07T07:39:50;6.00;99.90
38090;DHT22;23904;52.322;10.232;2024-03-07T07:42:16;6.00;99.90
38090;DHT22;23904;52.322;10.232;2024-03-07T07:44:41;6.00;99.90
38090;DHT22;23904;52.322;10.232;2024-03-07T07:47:09;6.00;99.90
38090;DHT22;23904;52.322;10.232;2024-03-07T07:49:38;6.00;99.90
38090;DHT22;23904;52.322;10.232;2024-03-07T07:52:05;6.00;99.90
38090;DHT22;23904;52.322;10.232;2024-03-07T07:54:31;6.00;99.90
38090;DHT22;23904;52.322;10.232;2024-03-07T07:56:57;6.10;99.90
38090;DHT22;23904;52.322;10.232;2024-03-07T07:59:22;6.10;99.90
38090;DHT22;23904;52.322;10.232;2024-03-07T08:01:48;6.00;99.90
38090;DHT22;23904;52.322;10.232;2024-03-07T08:04:13;6.00;99.90
38090;DHT22;23904;52.322;10.232;2024-03-07T08:06:40;6.00;99.90
38090;DHT22;23904;52.322;10.232;2024-03-07T08:09:06;6.10;99.90
38090;DHT22;23904;52.322;10.232;2024-03-07T08:11:35;6.10;99.90
38090;DHT22;23904;52.322;10.232;2024-03-07T08:14:02;6.00;99.90
38090;DHT22;23904;52.322;10.232;2024-03-07T08:16:28;6.10;99.90
38090;DHT22;23904;52.322;10.232;2024-03-07T08:18:53;6.10;99.90
38090;DHT22;23904;52.322;10.232;2024-03-07T08:21:21;6.10;99.90
38090;DHT22;23904;52.322;10.232;2024-03-07T08:23:48;6.10;99.90
38090;DHT22;23904;52.322;10.232;2024-03-07T08:26:14;6.10;99.90
38090;DHT22;23904;52.322;10.232;2024-03-07T08:28:41;6.10;99.90
38090;DHT22;23904;52.322;10.232;2024-03-07T08:31:06;6.30;99.90
38090;DHT22;23904;52.322;10.232;2024-03-07T08:33:32;6.40;99.90
38090;DHT22;23904;52.322;10.232;2024-03-07T08:35:58;6.50;99.90
38090;DHT22;23904;52.322;10.232;2024-03-07T08:38:24;6.50;99.90
38090;DHT22;23904;52.322;10.232;2024-03-07T08:40:50;6.50;99.90
38090;DHT22;23904;52.322;10.232;2024-03-07T08:43:15;6.50;99.90
38090;DHT22;23904;52.322;10.232;2024-03-07T08:45:41;6.50;99.90
38090;DHT22;23904;52.322;10.232;2024-03-07T08:48:07;6.50;99.90
38090;DHT22;23904;52.322;10.232;2024-03-07T08:50:34;6.40;99.90
38090;DHT22;23904;52.322;10.232;2024-03-07T08:53:03;6.30;99.90
38090;DHT22;23904;52.322;10.232;2024-03-07T08:55:29;6.30;99.90
38090;DHT22;23904;52.322;10.232;2024-03-07T08:57:56;6.30;99.90
38090;DHT22;23904;52.322;10.232;2024-03-07T09:00:21;6.40;99.90
38090;DHT22;23904;52.322;10.232;2024-03-07T09:02:48;6.30;99.90
38090;DHT22;23904;52.322;10.232;2024-03-07T09:05:18;6.40;99.90
38090;DHT22;23904;52.322;10.232;2024-03-07T09:07:45;6.40;99.90
38090;DHT22;23904;52.322;10.232;2024-03-07T09:10:12;6.40;99.90
38090;DHT22;23904;52.322;10.232;2024-03-07T09:12:40;6.40;99.90
38090;DHT22;23904;52.322;10.232;2024-03-07T09:15:06;6.40;99.90
38090;DHT22;23904;52.322;10.232;2024-03-07T09:17:32;6.50;99.90
38090;DHT22;23904;52.322;10.232;2024-03-07T09:19:58;6.50;99.90
38090;DHT22;23904;52.322;10.232;2024-03-07T09:22:23;6.50;99.90
38090;DHT22;23904;52.322;10.232;2024-03-07T09:24:49;6.60;99.90
38090;DHT22;23904;52.322;10.232;2024-03-07T09:27:14;6.50;99.90
38090;DHT22;23904;52.322;10.232;2024-03-07T09:29:45;6.50;99.90
38090;DHT22;23904;52.322;10.232;2024-03-07T09:32:13;6.60;99.90
38090;DHT22;23904;52.322;10.232;2024-03-07T09:34:39;6.60;99.90
38090;DHT22;23904;52.322;10.232;2024-03-07T09:37:04;6.50;99.90
38090;DHT22;23904;52.322;10.232;2024-03-07T09:39:32;6.60;99.90
38090;DHT22;23904;52.322;10.232;2024-03-07T09:42:03;6.60;99.90
38090;DHT22;23904;52.322;10.232;2024-03-07T09:44:29;6.60;99.90
38090;DHT22;23904;52.322;10.232;2024-03-07T09:46:56;6.50;99.90
38090;DHT22;23904;52.322;10.232;2024-03-07T09:49:25;6.60;99.90
38090;DHT22;23904;52.322;10.232;2024-03-07T09:51:55;6.90;99.90
38090;DHT22;23904;52.322;10.232;2024-03-07T09:54:24;6.90;99.90
38090;DHT22;23904;52.322;10.232;2024-03-07T09:56:54;6.80;99.90
38090;DHT22;23904;52.322;10.232;2024-03-07T09:59:20;6.90;99.90
38090;DHT22;23904;52.322;10.232;2024-03-07T10:01:56;7.30;99.90
38090;DHT22;23904;52.322;10.232;2024-03-07T10:04:31;7.70;99.90
38090;DHT22;23904;52.322;10.232;2024-03-07T10:07:07;8.40;99.90
38090;DHT22;23904;52.322;10.232;2024-03-07T10:09:38;8.80;99.90
38090;DHT22;23904;52.322;10.232;2024-03-07T10:12:03;9.20;99.90
38090;DHT22;23904;52.322;10.232;2024-03-07T10:14:32;9.20;99.90
38090;DHT22;23904;52.322;10.232;2024-03-07T10:16:58;9.20;99.90
38090;DHT22;23904;52.322;10.232;2024-03-07T10:19:24;9.00;99.90
38090;DHT22;23904;52.322;10.232;2024-03-07T10:21:49;8.80;99.90
38090;DHT22;23904;52.322;10.232;2024-03-07T10:24:17;8.70;99.90
38090;DHT22;23904;52.322;10.232;2024-03-07T10:26:43;8.40;99.90
38090;DHT22;23904;52.322;10.232;2024-03-07T10:29:08;8.60;99.90
38090;DHT22;23904;52.322;10.232;2024-03-07T10:31:35;8.80;99.90
38090;DHT22;23904;52.322;10.232;2024-03-07T10:34:03;9.10;99.90
38090;DHT22;23904;52.322;10.232;2024-03-07T10:36:32;9.30;99.90
38090;DHT22;23904;52.322;10.232;2024-03-07T10:38:59;9.70;99.90
38090;DHT22;23904;52.322;10.232;2024-03-07T10:41:28;9.90;99.90
38090;DHT22;23904;52.322;10.232;2024-03-07T10:43:57;9.80;99.90
38090;DHT22;23904;52.322;10.232;2024-03-07T10:46:25;9.80;99.90
38090;DHT22;23904;52.322;10.232;2024-03-07T10:48:54;9.80;99.90
38090;DHT22;23904;52.322;10.232;2024-03-07T10:51:33;10.10;99.90
38090;DHT22;23904;52.322;10.232;2024-03-07T10:54:20;10.40;99.90
38090;DHT22;23904;52.322;10.232;2024-03-07T10:57:15;10.10;99.90
38090;DHT22;23904;52.322;10.232;2024-03-07T10:59:50;9.60;99.90
38090;DHT22;23904;52.322;10.232;2024-03-07T11:04:50;9.10;99.90
38090;DHT22;23904;52.322;10.232;2024-03-07T11:07:23;8.80;99.90
38090;DHT22;23904;52.322;10.232;2024-03-07T11:09:49;8.80;99.90
38090;DHT22;23904;52.322;10.232;2024-03-07T11:12:21;8.80;99.90
38090;DHT22;23904;52.322;10.232;2024-03-07T11:14:50;8.60;99.90
38090;DHT22;23904;52.322;10.232;2024-03-07T11:17:18;9.00;99.90
38090;DHT22;23904;52.322;10.232;2024-03-07T11:19:44;9.30;99.90
38090;DHT22;23904;52.322;10.232;2024-03-07T11:22:11;9.40;99.90
38090;DHT22;23904;52.322;10.232;2024-03-07T11:24:41;9.20;99.90
38090;DHT22;23904;52.322;10.232;2024-03-07T11:27:09;9.10;99.90
38090;DHT22;23904;52.322;10.232;2024-03-07T11:29:43;8.90;99.90
38090;DHT22;23904;52.322;10.232;2024-03-07T11:32:13;9.00;99.90
38090;DHT22;23904;52.322;10.232;2024-03-07T11:34:40;9.00;99.90
38090;DHT22;23904;52.322;10.232;2024-03-07T11:37:08;9.90;99.90
38090;DHT22;23904;52.322;10.232;2024-03-07T11:42:25;11.40;99.90
38090;DHT22;23904;52.322;10.232;2024-03-07T11:44:52;10.80;99.90
38090;DHT22;23904;52.322;10.232;2024-03-07T11:47:22;10.50;99.90
38090;DHT22;23904;52.322;10.232;2024-03-07T11:49:52;10.00;99.90
38090;DHT22;23904;52.322;10.232;2024-03-07T11:52:19;9.60;99.90
38090;DHT22;23904;52.322;10.232;2024-03-07T11:54:44;9.80;99.90
38090;DHT22;23904;52.322;10.232;2024-03-07T11:57:16;10.40;99.90
38090;DHT22;23904;52.322;10.232;2024-03-07T11:59:44;10.70;99.90
38090;DHT22;23904;52.322;10.232;2024-03-07T12:02:14;11.30;99.90
38090;DHT22;23904;52.322;10.232;2024-03-07T12:04:41;10.90;99.90
38090;DHT22;23904;52.322;10.232;2024-03-07T12:07:07;11.00;99.90
38090;DHT22;23904;52.322;10.232;2024-03-07T12:09:38;10.80;99.90
38090;DHT22;23904;52.322;10.232;2024-03-07T12:12:07;10.20;99.90
38090;DHT22;23904;52.322;10.232;2024-03-07T12:14:34;9.80;99.90
38090;DHT22;23904;52.322;10.232;2024-03-07T12:17:01;9.40;99.90
38090;DHT22;23904;52.322;10.232;2024-03-07T12:19:30;9.60;99.90
38090;DHT22;23904;52.322;10.232;2024-03-07T12:22:00;10.10;99.90
38090;DHT22;23904;52.322;10.232;2024-03-07T12:24:27;10.60;99.90
38090;DHT22;23904;52.322;10.232;2024-03-07T12:27:03;11.70;99.90
38090;DHT22;23904;52.322;10.232;2024-03-07T12:29:30;12.60;99.90
38090;DHT22;23904;52.322;10.232;2024-03-07T12:31:56;12.60;99.90
38090;DHT22;23904;52.322;10.232;2024-03-07T12:34:21;13.10;99.90
38090;DHT22;23904;52.322;10.232;2024-03-07T12:36:49;13.30;98.80
38090;DHT22;23904;52.322;10.232;2024-03-07T12:39:23;12.80;99.20
38090;DHT22;23904;52.322;10.232;2024-03-07T12:41:56;12.10;99.90
38090;DHT22;23904;52.322;10.232;2024-03-07T12:44:22;11.10;99.90
38090;DHT22;23904;52.322;10.232;2024-03-07T12:46:54;10.60;99.90
38090;DHT22;23904;52.322;10.232;2024-03-07T12:49:23;9.90;99.90
38090;DHT22;23904;52.322;10.232;2024-03-07T12:51:55;9.60;99.90
38090;DHT22;23904;52.322;10.232;2024-03-07T12:54:24;9.40;99.90
38090;DHT22;23904;52.322;10.232;2024-03-07T12:56:50;9.40;99.90
38090;DHT22;23904;52.322;10.232;2024-03-07T12:59:16;9.60;99.90
38090;DHT22;23904;52.322;10.232;2024-03-07T13:01:42;9.90;99.90
38090;DHT22;23904;52.322;10.232;2024-03-07T13:04:11;10.20;99.90
38090;DHT22;23904;52.322;10.232;2024-03-07T13:06:37;10.00;99.90
38090;DHT22;23904;52.322;10.232;2024-03-07T13:09:03;9.80;99.90
38090;DHT22;23904;52.322;10.232;2024-03-07T13:11:29;9.70;99.90
38090;DHT22;23904;52.322;10.232;2024-03-07T13:13:58;9.70;99.90
38090;DHT22;23904;52.322;10.232;2024-03-07T13:16:24;9.60;99.90
38090;DHT22;23904;52.322;10.232;2024-03-07T13:18:56;9.50;99.90
38090;DHT22;23904;52.322;10.232;2024-03-07T13:21:22;9.30;99.90
38090;DHT22;23904;52.322;10.232;2024-03-07T13:23:47;9.50;99.90
38090;DHT22;23904;52.322;10.232;2024-03-07T13:26:17;9.50;99.90
38090;DHT22;23904;52.322;10.232;2024-03-07T13:28:49;9.60;99.90
38090;DHT22;23904;52.322;10.232;2024-03-07T13:31:16;9.70;99.90
38090;DHT22;23904;52.322;10.232;2024-03-07T13:33:43;9.90;99.90
38090;DHT22;23904;52.322;10.232;2024-03-07T13:36:09;10.30;99.90
38090;DHT22;23904;52.322;10.232;2024-03-07T13:38:35;10.80;99.90
38090;DHT22;23904;52.322;10.232;2024-03-07T13:41:02;11.10;99.90
38090;DHT22;23904;52.322;10.232;2024-03-07T13:43:31;11.00;99.90
38090;DHT22;23904;52.322;10.232;2024-03-07T13:45:59;10.60;99.90
38090;DHT22;23904;52.322;10.232;2024-03-07T13:48:25;10.20;99.90
38090;DHT22;23904;52.322;10.232;2024-03-07T13:50:51;10.00;99.90
38090;DHT22;23904;52.322;10.232;2024-03-07T13:53:19;9.80;99.90
38090;DHT22;23904;52.322;10.232;2024-03-07T14:01:40;9.80;99.90
38090;DHT22;23904;52.322;10.232;2024-03-07T14:07:33;10.10;99.90
38090;DHT22;23904;52.322;10.232;2024-03-07T14:14:18;10.10;99.90
38090;DHT22;23904;52.322;10.232;2024-03-07T14:17:12;9.90;99.90
38090;DHT22;23904;52.322;10.232;2024-03-07T14:24:02;9.70;99.90
38090;DHT22;23904;52.322;10.232;2024-03-07T14:33:13;9.70;99.90
38090;DHT22;23904;52.322;10.232;2024-03-07T14:36:02;9.70;99.90
38090;DHT22;23904;52.322;10.232;2024-03-07T14:38:44;9.60;99.90
38090;DHT22;23904;52.322;10.232;2024-03-07T14:41:15;9.40;99.90
38090;DHT22;23904;52.322;10.232;2024-03-07T14:43:41;9.40;99.90
38090;DHT22;23904;52.322;10.232;2024-03-07T14:46:09;9.50;99.90
38090;DHT22;23904;52.322;10.232;2024-03-07T14:48:35;9.50;99.90
38090;DHT22;23904;52.322;10.232;2024-03-07T14:51:01;9.50;99.90
38090;DHT22;23904;52.322;10.232;2024-03-07T14:53:28;9.40;99.90
38090;DHT22;23904;52.322;10.232;2024-03-07T14:55:54;9.40;99.90
38090;DHT22;23904;52.322;10.232;2024-03-07T14:58:21;9.10;99.90
38090;DHT22;23904;52.322;10.232;2024-03-07T15:00:47;9.20;99.90
38090;DHT22;23904;52.322;10.232;2024-03-07T15:03:15;9.00;99.90
38090;DHT22;23904;52.322;10.232;2024-03-07T15:05:43;9.00;99.90
38090;DHT22;23904;52.322;10.232;2024-03-07T15:08:12;9.10;99.90
38090;DHT22;23904;52.322;10.232;2024-03-07T15:10:44;9.00;99.90
38090;DHT22;23904;52.322;10.232;2024-03-07T15:13:13;8.90;99.90
38090;DHT22;23904;52.322;10.232;2024-03-07T15:15:39;9.00;99.90
38090;DHT22;23904;52.322;10.232;2024-03-07T15:18:06;9.00;99.90
38090;DHT22;23904;52.322;10.232;2024-03-07T15:20:32;9.00;99.90
38090;DHT22;23904;52.322;10.232;2024-03-07T15:22:59;9.00;99.90
38090;DHT22;23904;52.322;10.232;2024-03-07T15:25:26;9.10;99.90
38090;DHT22;23904;52.322;10.232;2024-03-07T15:27:53;9.00;99.90
38090;DHT22;23904;52.322;10.232;2024-03-07T15:30:24;9.10;99.90
38090;DHT22;23904;52.322;10.232;2024-03-07T15:32:51;9.00;99.90
38090;DHT22;23904;52.322;10.232;2024-03-07T15:35:17;9.00;99.90
38090;DHT22;23904;52.322;10.232;2024-03-07T15:37:47;8.90;99.90
38090;DHT22;23904;52.322;10.232;2024-03-07T15:40:15;8.90;99.90
38090;DHT22;23904;52.322;10.232;2024-03-07T15:42:42;8.90;99.90
38090;DHT22;23904;52.322;10.232;2024-03-07T15:45:11;8.80;99.90
38090;DHT22;23904;52.322;10.232;2024-03-07T15:47:45;8.70;99.90
38090;DHT22;23904;52.322;10.232;2024-03-07T15:50:12;8.80;99.90
38090;DHT22;23904;52.322;10.232;2024-03-07T15:52:41;8.80;99.90
38090;DHT22;23904;52.322;10.232;2024-03-07T15:55:08;8.80;99.90
38090;DHT22;23904;52.322;10.232;2024-03-07T15:57:46;8.80;99.90
38090;DHT22;23904;52.322;10.232;2024-03-07T16:00:16;8.80;99.90
38090;DHT22;23904;52.322;10.232;2024-03-07T16:03:08;8.80;99.90
38090;DHT22;23904;52.322;10.232;2024-03-07T16:05:36;8.80;99.90